Aérodrome :
LOGIN :

S'inscrire | Disclaimer

   EN    FR    IT 

 










Légende :    VFR   VFR Marginal   IFR   IFR Intensif   IFR Très Intensif
Visi : 
Plafond : 
>= 8 km
>= 3000ft
5 à 8 km
1000 à 3000 ft
1500m à 5 km
500 à 1000 ft
800 à 1500m
200 à 500 ft
< 800m
< 200 ft
Symboles :   Orages  Brouillard  Fortes neiges  Fortes précipitations  Vent > 20 kt
SIGMETs :   Divers  Orages  Givrage  Turbulence  Onde Orograph.  Cendres Volcan.







- Altitude de l'aérodrome : 144 ft
- Code IATA : PGF
- Voir les cartes d'approche


LFMP - Perpignan

DERNIER METAR :
  • 170730Z AUTO 31016KT CAVOK 24/14 Q1018 BECMG 31018G28KT

METARs EXPIRÉS :
  • 170700Z AUTO 33014G25KT 300V360 CAVOK 24/14 Q1018 NOSIG
  • 170630Z AUTO 32013KT 290V360 CAVOK 23/15 Q1018 BECMG 31018G28KT
  • 170600Z AUTO 32011KT 290V350 CAVOK 23/15 Q1018 BECMG 31018G28KT
  • 170530Z AUTO 32011KT 280V350 CAVOK 22/15 Q1018 BECMG 31018G28KT
  • 170500Z AUTO 32010KT 290V350 CAVOK 22/15 Q1018 BECMG 31018G28KT

TAF TAF LFMP
Valide du 17 à 03h jusqu'au 18 à 03h UTC


170200Z 1703/1803 31018G28KT CAVOK
BECMG 1713/1715 32010KT
ATIS : +33 4 68 63 75 12
Pas de NOTAMs connus pour ce terrain.



MET'MAP, la Météo Aéronautique d'un coup d'oeil ! - Copyright ORBIFLY Décembre 2007 - Disclaimer

ORBIFLY MET'MAP TEAM :

Programmation & Développement : Alexandra Zaïnal
Conception & Développement : Baudouin d'Aumeries
Co-Programmation & Développement : Marc-Olivier Méhu
Soutien technique & logistique : Manuel Goepfert

Contact : metmap@orbifly.com




SOURCES & CREDITS :

   NOAA